Harmony Leader — C6YP3 — position and weather

sailwx.info

Track history (hours):
 
Tides and Currents Weather Stations Pressure Air Temp Water Temp Dewpoint Dewpoint Depression Visibility Wind Speed Wind Dir Waves Ship Positions

Harmony Leader

Last reported at 2018-Jun-17 20:11 UTC. Time now 2018-Jun-17 22:11 UTC.
Position N 37°33' E 025°47'.

Length 200 m; draft 9.2 m.

Type: Cargo ship. MMSI: 311040800.

Date/timePositionNaut miles runAvg speedWind from/ knotsBaromVisibWave heightAir tempDewpointWater temp
2018-Jun-17 20:11N 37°33' E 025°47'315.5
2018-Jun-17 19:58N 37°30' E 025°49'715.5
2018-Jun-17 19:30N 37°24' E 025°54'  
2018-Jun-15 00:33N 33°30' E 034°28'216.1
2018-Jun-15 00:26N 33°29' E 034°26'916.2
2018-Jun-14 23:54N 33°24' E 034°18'616.2
2018-Jun-14 23:31N 33°20' E 034°11'1016.2
2018-Jun-14 22:53N 33°14' E 034°01'1016.1
2018-Jun-14 22:14N 33°09' E 033°51'415.9
2018-Jun-14 22:01N 33°07' E 033°47'815.9
2018-Jun-14 21:30N 33°01' E 033°40'815.7
2018-Jun-14 20:58N 32°55' E 033°34'1615.7
2018-Jun-14 19:56N 32°41' E 033°24'715.6
2018-Jun-14 19:30N 32°35' E 033°20'815.7
2018-Jun-14 19:01N 32°28' E 033°15'4315.6
2018-Jun-14 16:14N 31°51' E 032°49'1815.4
2018-Jun-14 15:02N 31°40' E 032°32'115.8
2018-Jun-14 15:00N 31°39' E 032°31'815.7
2018-Jun-14 14:30N 31°35' E 032°24'915.5
2018-Jun-14 13:54N 31°25' E 032°22'713.3
2018-Jun-14 13:22N 31°18' E 032°22'511.2
2018-Jun-14 12:55N 31°13' E 032°21'3 7.7
2018-Jun-14 12:30N 31°10' E 032°20'5 9.3
2018-Jun-14 12:00N 31°06' E 032°18'5 9.6
2018-Jun-14 11:30N 31°01' E 032°19'  
Track history (hours):
 
Tides and Currents Weather Stations Pressure Air Temp Water Temp Dewpoint Dewpoint Depression Visibility Wind Speed Wind Dir Waves Ship Positions

Harmony Leader

Last reported at 2018-Jun-17 20:11 UTC. Time now 2018-Jun-17 22:11 UTC.
Position N 37°33' E 025°47'.

Length 200 m; draft 9.2 m.

Type: Cargo ship. MMSI: 311040800.

Date/timePositionNaut miles runAvg speedWind from/ knotsBaromVisibWave heightAir tempDewpointWater temp
2018-Jun-17 20:11N 37°33' E 025°47'315.5
2018-Jun-17 19:58N 37°30' E 025°49'715.5
2018-Jun-17 19:30N 37°24' E 025°54'  
2018-Jun-15 00:33N 33°30' E 034°28'216.1
2018-Jun-15 00:26N 33°29' E 034°26'916.2
2018-Jun-14 23:54N 33°24' E 034°18'616.2
2018-Jun-14 23:31N 33°20' E 034°11'1016.2
2018-Jun-14 22:53N 33°14' E 034°01'1016.1
2018-Jun-14 22:14N 33°09' E 033°51'415.9
2018-Jun-14 22:01N 33°07' E 033°47'815.9
2018-Jun-14 21:30N 33°01' E 033°40'815.7
2018-Jun-14 20:58N 32°55' E 033°34'1615.7
2018-Jun-14 19:56N 32°41' E 033°24'715.6
2018-Jun-14 19:30N 32°35' E 033°20'815.7
2018-Jun-14 19:01N 32°28' E 033°15'4315.6
2018-Jun-14 16:14N 31°51' E 032°49'1815.4
2018-Jun-14 15:02N 31°40' E 032°32'115.8
2018-Jun-14 15:00N 31°39' E 032°31'815.7
2018-Jun-14 14:30N 31°35' E 032°24'915.5
2018-Jun-14 13:54N 31°25' E 032°22'713.3
2018-Jun-14 13:22N 31°18' E 032°22'511.2
2018-Jun-14 12:55N 31°13' E 032°21'3 7.7
2018-Jun-14 12:30N 31°10' E 032°20'5 9.3
2018-Jun-14 12:00N 31°06' E 032°18'5 9.6
2018-Jun-14 11:30N 31°01' E 032°19'  

Dump ship's entire track history